sensor_id;sensor_type;location;lat;lon;timestamp;P1;durP1;ratioP1;P2;durP2;ratioP2
63534;SDS011;55128;50.230;18.944;2022-08-23T00:02:20;11.00;;;9.80;;
63534;SDS011;55128;50.230;18.944;2022-08-23T00:07:21;11.90;;;9.48;;
63534;SDS011;55128;50.230;18.944;2022-08-23T00:12:22;11.38;;;9.60;;
63534;SDS011;55128;50.230;18.944;2022-08-23T00:17:22;10.35;;;8.85;;
63534;SDS011;55128;50.230;18.944;2022-08-23T00:22:23;12.85;;;9.95;;
63534;SDS011;55128;50.230;18.944;2022-08-23T00:27:23;10.27;;;9.27;;
63534;SDS011;55128;50.230;18.944;2022-08-23T00:32:29;12.07;;;10.18;;
63534;SDS011;55128;50.230;18.944;2022-08-23T00:37:31;13.52;;;10.93;;
63534;SDS011;55128;50.230;18.944;2022-08-23T00:47:51;11.85;;;8.98;;
63534;SDS011;55128;50.230;18.944;2022-08-23T00:52:59;10.55;;;9.18;;
63534;SDS011;55128;50.230;18.944;2022-08-23T00:58:04;10.35;;;9.13;;
63534;SDS011;55128;50.230;18.944;2022-08-23T01:03:07;14.43;;;11.40;;
63534;SDS011;55128;50.230;18.944;2022-08-23T01:08:10;11.23;;;9.60;;
63534;SDS011;55128;50.230;18.944;2022-08-23T01:13:12;10.82;;;9.43;;
63534;SDS011;55128;50.230;18.944;2022-08-23T01:18:18;11.10;;;8.82;;
63534;SDS011;55128;50.230;18.944;2022-08-23T01:28:35;10.67;;;9.00;;
63534;SDS011;55128;50.230;18.944;2022-08-23T01:33:38;10.43;;;8.83;;
63534;SDS011;55128;50.230;18.944;2022-08-23T01:38:40;10.27;;;9.15;;
63534;SDS011;55128;50.230;18.944;2022-08-23T01:43:41;10.85;;;9.73;;
63534;SDS011;55128;50.230;18.944;2022-08-23T01:48:43;13.07;;;10.27;;
63534;SDS011;55128;50.230;18.944;2022-08-23T01:53:47;10.40;;;9.10;;
63534;SDS011;55128;50.230;18.944;2022-08-23T01:58:48;10.65;;;9.55;;
63534;SDS011;55128;50.230;18.944;2022-08-23T02:03:49;10.07;;;8.85;;
63534;SDS011;55128;50.230;18.944;2022-08-23T02:08:49;9.80;;;8.80;;
63534;SDS011;55128;50.230;18.944;2022-08-23T02:14:12;10.77;;;8.03;;
63534;SDS011;55128;50.230;18.944;2022-08-23T02:19:18;8.93;;;8.02;;
63534;SDS011;55128;50.230;18.944;2022-08-23T02:24:21;9.65;;;8.65;;
63534;SDS011;55128;50.230;18.944;2022-08-23T02:29:23;9.52;;;8.57;;
63534;SDS011;55128;50.230;18.944;2022-08-23T02:34:26;10.27;;;8.90;;
63534;SDS011;55128;50.230;18.944;2022-08-23T02:39:28;9.93;;;8.82;;
63534;SDS011;55128;50.230;18.944;2022-08-23T02:44:29;11.43;;;10.23;;
63534;SDS011;55128;50.230;18.944;2022-08-23T02:49:30;11.05;;;9.88;;
63534;SDS011;55128;50.230;18.944;2022-08-23T02:54:31;11.30;;;9.77;;
63534;SDS011;55128;50.230;18.944;2022-08-23T02:59:32;14.13;;;11.80;;
63534;SDS011;55128;50.230;18.944;2022-08-23T03:04:34;14.13;;;11.95;;
63534;SDS011;55128;50.230;18.944;2022-08-23T03:09:35;15.25;;;11.52;;
63534;SDS011;55128;50.230;18.944;2022-08-23T03:14:35;13.00;;;11.43;;
63534;SDS011;55128;50.230;18.944;2022-08-23T03:19:39;14.57;;;12.82;;
63534;SDS011;55128;50.230;18.944;2022-08-23T03:24:39;11.90;;;10.70;;
63534;SDS011;55128;50.230;18.944;2022-08-23T03:29:40;16.23;;;12.98;;
63534;SDS011;55128;50.230;18.944;2022-08-23T03:34:41;14.80;;;11.95;;
63534;SDS011;55128;50.230;18.944;2022-08-23T03:39:41;14.82;;;12.13;;
63534;SDS011;55128;50.230;18.944;2022-08-23T03:44:42;14.48;;;12.75;;
63534;SDS011;55128;50.230;18.944;2022-08-23T03:49:42;20.88;;;15.63;;
63534;SDS011;55128;50.230;18.944;2022-08-23T03:54:43;15.73;;;12.93;;
63534;SDS011;55128;50.230;18.944;2022-08-23T03:59:44;14.57;;;12.25;;
63534;SDS011;55128;50.230;18.944;2022-08-23T04:04:44;14.98;;;12.40;;
63534;SDS011;55128;50.230;18.944;2022-08-23T04:09:45;16.95;;;12.52;;
63534;SDS011;55128;50.230;18.944;2022-08-23T04:14:46;17.55;;;13.25;;
63534;SDS011;55128;50.230;18.944;2022-08-23T04:19:46;16.75;;;13.32;;
63534;SDS011;55128;50.230;18.944;2022-08-23T04:24:48;25.85;;;21.77;;
63534;SDS011;55128;50.230;18.944;2022-08-23T04:29:49;18.50;;;13.98;;
63534;SDS011;55128;50.230;18.944;2022-08-23T04:34:49;17.95;;;15.38;;
63534;SDS011;55128;50.230;18.944;2022-08-23T04:39:50;18.63;;;15.93;;
63534;SDS011;55128;50.230;18.944;2022-08-23T04:45:09;19.08;;;14.50;;
63534;SDS011;55128;50.230;18.944;2022-08-23T04:50:10;21.73;;;15.95;;
63534;SDS011;55128;50.230;18.944;2022-08-23T04:55:11;20.02;;;16.67;;
63534;SDS011;55128;50.230;18.944;2022-08-23T05:00:12;22.65;;;17.27;;
63534;SDS011;55128;50.230;18.944;2022-08-23T05:05:15;19.88;;;16.08;;
63534;SDS011;55128;50.230;18.944;2022-08-23T05:10:16;24.65;;;17.23;;
63534;SDS011;55128;50.230;18.944;2022-08-23T05:15:17;23.92;;;18.13;;
63534;SDS011;55128;50.230;18.944;2022-08-23T05:20:18;24.95;;;18.92;;
63534;SDS011;55128;50.230;18.944;2022-08-23T05:25:19;24.67;;;19.30;;
63534;SDS011;55128;50.230;18.944;2022-08-23T05:30:20;24.60;;;19.10;;
63534;SDS011;55128;50.230;18.944;2022-08-23T05:35:20;22.98;;;19.63;;
63534;SDS011;55128;50.230;18.944;2022-08-23T05:40:21;24.60;;;20.08;;
63534;SDS011;55128;50.230;18.944;2022-08-23T05:45:22;24.40;;;20.95;;
63534;SDS011;55128;50.230;18.944;2022-08-23T05:50:22;30.30;;;22.02;;
63534;SDS011;55128;50.230;18.944;2022-08-23T05:55:23;32.53;;;24.05;;
63534;SDS011;55128;50.230;18.944;2022-08-23T06:00:24;31.55;;;23.70;;
63534;SDS011;55128;50.230;18.944;2022-08-23T06:05:25;32.28;;;24.73;;
63534;SDS011;55128;50.230;18.944;2022-08-23T06:10:26;35.53;;;23.63;;
63534;SDS011;55128;50.230;18.944;2022-08-23T06:15:26;34.47;;;23.42;;
63534;SDS011;55128;50.230;18.944;2022-08-23T06:20:27;33.13;;;24.13;;
63534;SDS011;55128;50.230;18.944;2022-08-23T06:25:27;28.27;;;23.10;;
63534;SDS011;55128;50.230;18.944;2022-08-23T06:30:28;30.92;;;23.35;;
63534;SDS011;55128;50.230;18.944;2022-08-23T06:35:29;27.05;;;21.25;;
63534;SDS011;55128;50.230;18.944;2022-08-23T06:40:29;30.02;;;22.38;;
63534;SDS011;55128;50.230;18.944;2022-08-23T06:45:30;23.67;;;20.48;;
63534;SDS011;55128;50.230;18.944;2022-08-23T06:50:32;26.38;;;20.80;;
63534;SDS011;55128;50.230;18.944;2022-08-23T06:55:33;29.83;;;22.52;;
63534;SDS011;55128;50.230;18.944;2022-08-23T07:00:33;27.40;;;20.67;;
63534;SDS011;55128;50.230;18.944;2022-08-23T07:05:34;23.90;;;20.60;;
63534;SDS011;55128;50.230;18.944;2022-08-23T07:10:35;24.75;;;21.33;;
63534;SDS011;55128;50.230;18.944;2022-08-23T07:15:36;23.45;;;19.52;;
63534;SDS011;55128;50.230;18.944;2022-08-23T07:20:36;25.92;;;20.17;;
63534;SDS011;55128;50.230;18.944;2022-08-23T07:25:38;25.02;;;19.95;;
63534;SDS011;55128;50.230;18.944;2022-08-23T07:30:39;25.98;;;20.80;;
63534;SDS011;55128;50.230;18.944;2022-08-23T07:35:47;24.50;;;20.88;;
63534;SDS011;55128;50.230;18.944;2022-08-23T07:40:49;24.20;;;19.58;;
63534;SDS011;55128;50.230;18.944;2022-08-23T07:45:49;22.92;;;20.23;;
63534;SDS011;55128;50.230;18.944;2022-08-23T07:50:54;23.27;;;20.27;;
63534;SDS011;55128;50.230;18.944;2022-08-23T07:55:56;23.85;;;20.58;;
63534;SDS011;55128;50.230;18.944;2022-08-23T08:01:06;24.85;;;19.70;;
63534;SDS011;55128;50.230;18.944;2022-08-23T08:06:13;23.13;;;20.23;;
63534;SDS011;55128;50.230;18.944;2022-08-23T08:11:21;21.98;;;19.42;;
63534;SDS011;55128;50.230;18.944;2022-08-23T08:16:28;23.60;;;20.10;;
63534;SDS011;55128;50.230;18.944;2022-08-23T08:21:31;24.02;;;20.77;;
63534;SDS011;55128;50.230;18.944;2022-08-23T08:26:33;23.02;;;20.48;;
63534;SDS011;55128;50.230;18.944;2022-08-23T08:31:33;23.27;;;19.70;;
63534;SDS011;55128;50.230;18.944;2022-08-23T08:36:38;26.63;;;22.50;;
63534;SDS011;55128;50.230;18.944;2022-08-23T08:46:50;26.90;;;21.98;;
63534;SDS011;55128;50.230;18.944;2022-08-23T08:51:55;24.70;;;22.00;;
63534;SDS011;55128;50.230;18.944;2022-08-23T08:57:01;26.63;;;22.95;;
63534;SDS011;55128;50.230;18.944;2022-08-23T09:02:04;26.35;;;23.30;;
63534;SDS011;55128;50.230;18.944;2022-08-23T09:07:11;21.85;;;19.42;;
63534;SDS011;55128;50.230;18.944;2022-08-23T09:18:02;23.48;;;20.45;;
63534;SDS011;55128;50.230;18.944;2022-08-23T09:23:15;23.40;;;21.00;;
63534;SDS011;55128;50.230;18.944;2022-08-23T09:28:19;23.73;;;20.90;;
63534;SDS011;55128;50.230;18.944;2022-08-23T09:33:21;23.60;;;21.10;;
63534;SDS011;55128;50.230;18.944;2022-08-23T09:38:24;24.50;;;21.65;;
63534;SDS011;55128;50.230;18.944;2022-08-23T09:43:26;22.52;;;20.27;;
63534;SDS011;55128;50.230;18.944;2022-08-23T09:48:41;23.92;;;21.25;;
63534;SDS011;55128;50.230;18.944;2022-08-23T09:53:44;26.95;;;22.13;;
63534;SDS011;55128;50.230;18.944;2022-08-23T09:58:49;23.35;;;20.73;;
63534;SDS011;55128;50.230;18.944;2022-08-23T10:09:23;23.63;;;21.27;;
63534;SDS011;55128;50.230;18.944;2022-08-23T10:14:30;27.70;;;24.85;;
63534;SDS011;55128;50.230;18.944;2022-08-23T10:19:44;29.95;;;25.50;;
63534;SDS011;55128;50.230;18.944;2022-08-23T10:25:10;32.77;;;27.13;;
63534;SDS011;55128;50.230;18.944;2022-08-23T10:30:20;29.40;;;26.23;;
63534;SDS011;55128;50.230;18.944;2022-08-23T10:40:45;32.55;;;26.77;;
63534;SDS011;55128;50.230;18.944;2022-08-23T10:46:14;31.60;;;26.95;;
63534;SDS011;55128;50.230;18.944;2022-08-23T10:51:21;29.92;;;26.65;;
63534;SDS011;55128;50.230;18.944;2022-08-23T10:56:26;32.78;;;27.77;;
63534;SDS011;55128;50.230;18.944;2022-08-23T11:01:33;32.03;;;27.17;;
63534;SDS011;55128;50.230;18.944;2022-08-23T11:06:54;34.22;;;29.95;;
63534;SDS011;55128;50.230;18.944;2022-08-23T11:12:12;29.23;;;25.38;;
63534;SDS011;55128;50.230;18.944;2022-08-23T11:17:24;28.53;;;25.03;;
63534;SDS011;55128;50.230;18.944;2022-08-23T11:22:28;31.20;;;25.15;;
63534;SDS011;55128;50.230;18.944;2022-08-23T11:32:44;27.65;;;24.58;;
63534;SDS011;55128;50.230;18.944;2022-08-23T11:37:50;29.20;;;25.58;;
63534;SDS011;55128;50.230;18.944;2022-08-23T11:42:55;30.45;;;25.13;;
63534;SDS011;55128;50.230;18.944;2022-08-23T11:48:39;29.27;;;26.20;;
63534;SDS011;55128;50.230;18.944;2022-08-23T11:59:02;28.73;;;25.67;;
63534;SDS011;55128;50.230;18.944;2022-08-23T12:04:26;28.77;;;25.67;;
63534;SDS011;55128;50.230;18.944;2022-08-23T12:19:44;28.70;;;24.40;;
63534;SDS011;55128;50.230;18.944;2022-08-23T12:24:51;29.20;;;26.13;;
63534;SDS011;55128;50.230;18.944;2022-08-23T12:46:35;25.58;;;22.67;;
63534;SDS011;55128;50.230;18.944;2022-08-23T12:51:49;26.73;;;23.88;;
63534;SDS011;55128;50.230;18.944;2022-08-23T12:56:56;26.50;;;23.77;;
63534;SDS011;55128;50.230;18.944;2022-08-23T13:01:58;25.40;;;22.77;;
63534;SDS011;55128;50.230;18.944;2022-08-23T13:07:03;23.95;;;21.45;;
63534;SDS011;55128;50.230;18.944;2022-08-23T13:12:07;25.25;;;22.65;;
63534;SDS011;55128;50.230;18.944;2022-08-23T13:22:22;25.55;;;22.90;;
63534;SDS011;55128;50.230;18.944;2022-08-23T13:27:26;23.98;;;21.55;;
63534;SDS011;55128;50.230;18.944;2022-08-23T13:32:49;23.25;;;20.95;;
63534;SDS011;55128;50.230;18.944;2022-08-23T13:43:09;23.38;;;21.10;;
63534;SDS011;55128;50.230;18.944;2022-08-23T13:48:17;23.05;;;20.75;;
63534;SDS011;55128;50.230;18.944;2022-08-23T13:53:20;23.83;;;21.40;;
63534;SDS011;55128;50.230;18.944;2022-08-23T13:58:26;22.67;;;20.42;;
63534;SDS011;55128;50.230;18.944;2022-08-23T14:03:29;23.92;;;21.50;;
63534;SDS011;55128;50.230;18.944;2022-08-23T14:08:30;23.92;;;21.52;;
63534;SDS011;55128;50.230;18.944;2022-08-23T14:13:31;24.20;;;21.70;;
63534;SDS011;55128;50.230;18.944;2022-08-23T14:18:33;26.90;;;23.10;;
63534;SDS011;55128;50.230;18.944;2022-08-23T14:23:34;25.52;;;22.77;;
63534;SDS011;55128;50.230;18.944;2022-08-23T14:28:34;24.83;;;22.30;;
63534;SDS011;55128;50.230;18.944;2022-08-23T14:33:35;25.20;;;22.67;;
63534;SDS011;55128;50.230;18.944;2022-08-23T14:38:36;24.73;;;22.08;;
63534;SDS011;55128;50.230;18.944;2022-08-23T14:43:37;25.17;;;22.60;;
63534;SDS011;55128;50.230;18.944;2022-08-23T14:48:38;25.35;;;22.88;;
63534;SDS011;55128;50.230;18.944;2022-08-23T14:53:39;27.48;;;23.58;;
63534;SDS011;55128;50.230;18.944;2022-08-23T14:58:39;25.67;;;23.05;;
63534;SDS011;55128;50.230;18.944;2022-08-23T15:03:41;24.60;;;22.05;;
63534;SDS011;55128;50.230;18.944;2022-08-23T15:08:42;24.58;;;21.92;;
63534;SDS011;55128;50.230;18.944;2022-08-23T15:13:44;24.15;;;21.38;;
63534;SDS011;55128;50.230;18.944;2022-08-23T15:18:47;21.53;;;19.33;;
63534;SDS011;55128;50.230;18.944;2022-08-23T15:28:49;25.13;;;21.57;;
63534;SDS011;55128;50.230;18.944;2022-08-23T15:33:50;21.88;;;19.77;;
63534;SDS011;55128;50.230;18.944;2022-08-23T15:38:51;21.38;;;19.20;;
63534;SDS011;55128;50.230;18.944;2022-08-23T15:43:52;21.23;;;18.83;;
63534;SDS011;55128;50.230;18.944;2022-08-23T15:48:56;21.77;;;19.48;;
63534;SDS011;55128;50.230;18.944;2022-08-23T15:54:18;21.10;;;18.92;;
63534;SDS011;55128;50.230;18.944;2022-08-23T15:59:18;21.35;;;19.27;;
63534;SDS011;55128;50.230;18.944;2022-08-23T16:04:20;22.52;;;18.90;;
63534;SDS011;55128;50.230;18.944;2022-08-23T16:09:22;21.65;;;18.75;;
63534;SDS011;55128;50.230;18.944;2022-08-23T16:14:24;20.23;;;18.25;;
63534;SDS011;55128;50.230;18.944;2022-08-23T16:19:25;21.07;;;19.07;;
63534;SDS011;55128;50.230;18.944;2022-08-23T16:24:27;21.50;;;19.08;;
63534;SDS011;55128;50.230;18.944;2022-08-23T16:29:28;22.15;;;19.05;;
63534;SDS011;55128;50.230;18.944;2022-08-23T16:34:32;22.15;;;19.80;;
63534;SDS011;55128;50.230;18.944;2022-08-23T16:39:33;21.85;;;19.50;;
63534;SDS011;55128;50.230;18.944;2022-08-23T16:44:35;23.35;;;19.48;;
63534;SDS011;55128;50.230;18.944;2022-08-23T16:49:36;23.95;;;20.42;;
63534;SDS011;55128;50.230;18.944;2022-08-23T16:54:37;23.58;;;20.25;;
63534;SDS011;55128;50.230;18.944;2022-08-23T16:59:38;23.60;;;20.88;;
63534;SDS011;55128;50.230;18.944;2022-08-23T17:04:38;24.20;;;20.48;;
63534;SDS011;55128;50.230;18.944;2022-08-23T17:09:39;24.13;;;20.75;;
63534;SDS011;55128;50.230;18.944;2022-08-23T17:14:41;24.52;;;20.33;;
63534;SDS011;55128;50.230;18.944;2022-08-23T17:19:44;22.60;;;20.17;;
63534;SDS011;55128;50.230;18.944;2022-08-23T17:24:45;24.27;;;19.95;;
63534;SDS011;55128;50.230;18.944;2022-08-23T17:29:45;23.45;;;19.60;;
63534;SDS011;55128;50.230;18.944;2022-08-23T17:34:46;25.35;;;20.20;;
63534;SDS011;55128;50.230;18.944;2022-08-23T17:39:47;24.60;;;19.05;;
63534;SDS011;55128;50.230;18.944;2022-08-23T17:44:49;24.02;;;19.77;;
63534;SDS011;55128;50.230;18.944;2022-08-23T17:49:50;26.42;;;21.65;;
63534;SDS011;55128;50.230;18.944;2022-08-23T17:54:52;23.67;;;20.85;;
63534;SDS011;55128;50.230;18.944;2022-08-23T17:59:53;23.13;;;19.17;;
63534;SDS011;55128;50.230;18.944;2022-08-23T18:04:53;22.75;;;19.70;;
63534;SDS011;55128;50.230;18.944;2022-08-23T18:09:54;21.42;;;18.90;;
63534;SDS011;55128;50.230;18.944;2022-08-23T18:14:55;23.00;;;18.90;;
63534;SDS011;55128;50.230;18.944;2022-08-23T18:19:56;23.10;;;18.88;;
63534;SDS011;55128;50.230;18.944;2022-08-23T18:24:58;23.20;;;18.90;;
63534;SDS011;55128;50.230;18.944;2022-08-23T18:29:58;22.52;;;18.75;;
63534;SDS011;55128;50.230;18.944;2022-08-23T18:34:59;21.65;;;18.52;;
63534;SDS011;55128;50.230;18.944;2022-08-23T18:39:59;23.48;;;19.42;;
63534;SDS011;55128;50.230;18.944;2022-08-23T18:45:00;21.92;;;19.40;;
63534;SDS011;55128;50.230;18.944;2022-08-23T18:50:01;20.40;;;18.13;;
63534;SDS011;55128;50.230;18.944;2022-08-23T19:01:02;24.00;;;19.00;;
63534;SDS011;55128;50.230;18.944;2022-08-23T19:06:02;23.58;;;20.15;;
63534;SDS011;55128;50.230;18.944;2022-08-23T19:11:03;21.10;;;17.83;;
63534;SDS011;55128;50.230;18.944;2022-08-23T19:16:04;24.10;;;20.15;;
63534;SDS011;55128;50.230;18.944;2022-08-23T19:21:05;23.65;;;18.75;;
63534;SDS011;55128;50.230;18.944;2022-08-23T19:26:13;21.75;;;17.55;;
63534;SDS011;55128;50.230;18.944;2022-08-23T19:31:15;20.15;;;16.27;;
63534;SDS011;55128;50.230;18.944;2022-08-23T19:36:16;23.80;;;17.27;;
63534;SDS011;55128;50.230;18.944;2022-08-23T19:41:17;26.00;;;17.67;;
63534;SDS011;55128;50.230;18.944;2022-08-23T19:46:18;21.55;;;17.08;;
63534;SDS011;55128;50.230;18.944;2022-08-23T19:51:19;24.33;;;15.88;;
63534;SDS011;55128;50.230;18.944;2022-08-23T19:56:19;20.90;;;16.38;;
63534;SDS011;55128;50.230;18.944;2022-08-23T20:01:20;21.15;;;17.45;;
63534;SDS011;55128;50.230;18.944;2022-08-23T20:06:21;20.48;;;17.17;;
63534;SDS011;55128;50.230;18.944;2022-08-23T20:11:21;20.92;;;16.83;;
63534;SDS011;55128;50.230;18.944;2022-08-23T20:16:22;23.30;;;17.35;;
63534;SDS011;55128;50.230;18.944;2022-08-23T20:21:25;23.45;;;17.88;;
63534;SDS011;55128;50.230;18.944;2022-08-23T20:26:30;23.50;;;18.63;;
63534;SDS011;55128;50.230;18.944;2022-08-23T20:31:45;23.50;;;18.60;;
63534;SDS011;55128;50.230;18.944;2022-08-23T20:36:49;24.95;;;18.90;;
63534;SDS011;55128;50.230;18.944;2022-08-23T20:41:54;25.85;;;19.58;;
63534;SDS011;55128;50.230;18.944;2022-08-23T20:46:55;25.08;;;19.60;;
63534;SDS011;55128;50.230;18.944;2022-08-23T20:51:56;25.30;;;19.73;;
63534;SDS011;55128;50.230;18.944;2022-08-23T20:56:57;28.08;;;20.08;;
63534;SDS011;55128;50.230;18.944;2022-08-23T21:01:57;25.52;;;18.77;;
63534;SDS011;55128;50.230;18.944;2022-08-23T21:06:59;24.38;;;19.33;;
63534;SDS011;55128;50.230;18.944;2022-08-23T21:11:59;26.48;;;20.42;;
63534;SDS011;55128;50.230;18.944;2022-08-23T21:17:00;27.17;;;20.80;;
63534;SDS011;55128;50.230;18.944;2022-08-23T21:22:00;25.73;;;19.60;;
63534;SDS011;55128;50.230;18.944;2022-08-23T21:27:01;24.98;;;21.38;;
63534;SDS011;55128;50.230;18.944;2022-08-23T21:32:02;26.45;;;21.45;;
63534;SDS011;55128;50.230;18.944;2022-08-23T21:37:02;25.98;;;19.88;;
63534;SDS011;55128;50.230;18.944;2022-08-23T21:42:03;24.75;;;20.17;;
63534;SDS011;55128;50.230;18.944;2022-08-23T21:47:04;28.15;;;20.67;;
63534;SDS011;55128;50.230;18.944;2022-08-23T21:52:05;28.00;;;21.20;;
63534;SDS011;55128;50.230;18.944;2022-08-23T21:57:06;24.70;;;20.83;;
63534;SDS011;55128;50.230;18.944;2022-08-23T22:02:08;30.85;;;21.23;;
63534;SDS011;55128;50.230;18.944;2022-08-23T22:07:08;26.95;;;20.45;;
63534;SDS011;55128;50.230;18.944;2022-08-23T22:12:09;30.23;;;22.65;;
63534;SDS011;55128;50.230;18.944;2022-08-23T22:17:10;29.15;;;20.38;;
63534;SDS011;55128;50.230;18.944;2022-08-23T22:22:10;28.33;;;20.38;;
63534;SDS011;55128;50.230;18.944;2022-08-23T22:27:11;28.55;;;21.65;;
63534;SDS011;55128;50.230;18.944;2022-08-23T22:32:12;32.92;;;23.13;;
63534;SDS011;55128;50.230;18.944;2022-08-23T22:37:12;33.47;;;23.38;;
63534;SDS011;55128;50.230;18.944;2022-08-23T22:42:13;32.75;;;23.45;;
63534;SDS011;55128;50.230;18.944;2022-08-23T22:47:15;35.80;;;23.63;;
63534;SDS011;55128;50.230;18.944;2022-08-23T22:52:16;37.15;;;24.85;;
63534;SDS011;55128;50.230;18.944;2022-08-23T22:57:17;32.28;;;24.05;;
63534;SDS011;55128;50.230;18.944;2022-08-23T23:02:18;36.67;;;26.92;;
63534;SDS011;55128;50.230;18.944;2022-08-23T23:07:19;36.83;;;26.65;;
63534;SDS011;55128;50.230;18.944;2022-08-23T23:12:39;37.58;;;27.45;;
63534;SDS011;55128;50.230;18.944;2022-08-23T23:17:40;39.55;;;27.02;;
63534;SDS011;55128;50.230;18.944;2022-08-23T23:22:42;38.92;;;26.17;;
63534;SDS011;55128;50.230;18.944;2022-08-23T23:27:43;40.25;;;27.08;;
63534;SDS011;55128;50.230;18.944;2022-08-23T23:32:44;37.70;;;26.77;;
63534;SDS011;55128;50.230;18.944;2022-08-23T23:37:44;36.35;;;24.15;;
63534;SDS011;55128;50.230;18.944;2022-08-23T23:42:45;34.55;;;23.58;;
63534;SDS011;55128;50.230;18.944;2022-08-23T23:47:46;35.13;;;24.08;;
63534;SDS011;55128;50.230;18.944;2022-08-23T23:52:48;34.90;;;23.60;;
63534;SDS011;55128;50.230;18.944;2022-08-23T23:57:49;39.13;;;25.17;;
